Erick Ochoa

Olheiro-Chefe - Queretaro
3 Fev 2028
Quinta-feira
Processo

Personalidade

Adaptabilidade (19) Ambição (12) Controvérsia (18) Lealdade (1) Pressão (2) Profissionalismo (10) Espírito Esportivo (16) Temperamento (17)

Perfil

Estilo de Treinamento Democrático
Licença Nacional B
Determinação 6
Gestão de Pessoas 12
Motivação 5
Disciplina 12
Satisfação no Trabalho
100%
Fadiga
0%
Função Olheiro-Chefe
Salário 63.7K p/s
Contrato 14.03.2029

Desempenho

Comportamento Bom
Eficácia do Treinamento
39%
Desenvolvimento do Jogador
55%
Prevenção de Lesões
30%
Implementação Tática
25%

Eventos Recentes

Participou de uma reunião de recrutamento agora
Recomendou um alvo de transferência agora
Recomendou um alvo de transferência agora
Recomendou um alvo de transferência agora
Recomendou um alvo de transferência agora
Recomendou um alvo de transferência agora
Recomendou um alvo de transferência agora
Participou de uma reunião de recrutamento 7d atrás

Monitorando agora

74
Jogador Clube Status Habilidade Confiança Observado Última observação Último voto
Ronan Kpakio Cardiff City Ativo 110 / 127 40% 1 10.01.2028 -
Fabián Correa Barranquilla Ativo 80 / 91 40% 4 07.01.2028 -
Victor Martinez Atletico Venezuela Ativo 104 / 86 40% 2 07.01.2028 -
Leonardo Palestina Club America Ativo 88 / 102 58% 1 07.01.2028 Aprovar
Halam Loboa Osasuna Ativo 125 / 125 40% 1 06.01.2028 -
Wilmar Borja La Equidad Ativo 90 / 112 40% 4 01.01.2028 -
Donis Avdijaj Getafe Ativo 117 / 117 66% 1 01.01.2028 Aprovar
Mikel Gogorza Minnesota United FC Ativo 117 / 130 67% 1 01.01.2028 Aprovar
Andile Zwane Rosario Central Ativo 124 / 124 67% 1 01.01.2028 Aprovar
Ebrima Singhateh Lokeren Ativo 112 / 116 66% 1 01.01.2028 Aprovar
Amr Fathy Hajduk Split Ativo 121 / 121 66% 1 01.01.2028 Aprovar
Ezra Mayers West Ham United Ativo 134 / 138 40% 1 01.01.2028 -
Godwin Oham Warri Wolves Ativo 79 / 92 40% 1 31.08.2027 -
Jose Rodriguez La Equidad Ativo 100 / 94 40% 1 31.08.2027 -
Facundo Balatti Penarol Negociando 103 / 113 40% 1 30.08.2027 -
Juan Camilo Quintero Cortulua Ativo 81 / 89 40% 1 30.08.2027 -
Afriyie Sulemana Hasaacas Ativo 102 / 100 40% 3 29.08.2027 -
Mbekezeli Mbokazi Chicago Fire Ativo 137 / 133 40% 2 27.08.2027 -
Gideon Manaseh Ikorodu City Ativo 95 / 94 40% 1 27.08.2027 -
Dilan Villarreal Junior Ativo 100 / 98 40% 1 25.08.2027 -
Pedro Vian Seewald Arzignano Ativo 108 / 111 40% 3 20.08.2027 -
Alessio Insignito Spezia Ativo 94 / 107 40% 1 17.08.2027 -
Kazunari Kita Real Sociedad Ativo 115 / 114 40% 3 16.08.2027 -
Felipe Faúndez O'Higgins Ativo 103 / 101 40% 2 10.08.2027 -
Izan Merino Málaga Ativo 118 / 126 40% 1 10.08.2027 -
Mattia Mannini Juve Stabia Ativo 105 / 127 40% 2 09.08.2027 -
Rafael Guerrero Tigres Ativo 109 / 106 58% 1 09.08.2027 Aprovar
José Neto Alverca Ativo 110 / 115 40% 4 08.08.2027 -
Jonathan Bland Barnsley Ativo 115 / 105 40% 2 08.08.2027 -
Gady Beyuku Modena Ativo 122 / 118 40% 3 07.08.2027 -
Jorge Salinas Racing Santander Ativo 122 / 123 40% 1 07.08.2027 -
Teo Rodríguez Pagano San Lorenzo Ativo 100 / 114 40% 3 05.08.2027 -
Yusi Alavés Ativo 122 / 143 40% 1 05.08.2027 -
Jaydee Canvot Crystal Palace Ativo 145 / 152 40% 2 04.08.2027 -
Eliás Montiel Athletic Bilbao Ativo 123 / 133 40% 1 04.08.2027 -
Urko Izeta Cádiz Ativo 141 / 127 40% 1 03.08.2027 -
Curro Burgos Ativo 138 / 132 40% 1 03.08.2027 -
Antonio Briseño Toluca Ativo 126 / 124 58% 1 02.08.2027 Aprovar
Bastien Meupiyou Alverca Ativo 114 / 124 40% 1 02.08.2027 -
Christ Inao Oulaï Fiorentina Ativo 125 / 133 40% 2 29.07.2027 -
Rafael Vargas Cortulua Ativo 82 / 106 40% 1 28.07.2027 -
Riley Owen Bristol Rovers Ativo 104 / 105 40% 2 26.07.2027 -
Elias Baum Eintracht Frankfurt Ativo 130 / 133 40% 2 23.07.2027 -
Joe Knight Stevenage Ativo 116 / 112 40% 3 18.07.2027 -
T-Jay Parfitt Colchester United Ativo 99 / 97 40% 2 17.07.2027 -
Miguel Figueiredo Benfica Ativo 122 / 118 40% 4 15.07.2027 -
Dylan Lawlor Cardiff City Ativo 132 / 119 40% 3 14.07.2027 -
Toni Tamarit Alverca Ativo 114 / 116 40% 1 13.07.2027 -
Marco Oroná Antofagasta Ativo 102 / 100 40% 2 12.07.2027 -
Ramón Pasquel Morelia Ativo 111 / 97 58% 1 12.07.2027 Aprovar
Simón Pinto Palestino Ativo 115 / 110 40% 1 12.07.2027 -
Bahmed Deuff FC Metz Ativo 117 / 119 40% 2 10.07.2027 -
Pape Diong Westerlo Ativo 105 / 121 40% 1 08.07.2027 -
Milan Roganović Partizan Ativo 122 / 111 40% 1 06.07.2027 -
Alessandro Ventre Vis Pesaro Ativo 81 / 102 40% 2 03.07.2027 -
Mats Egbring Heerenveen Ativo 105 / 104 40% 1 29.06.2027 -
Daniel Banjaqui Benfica Ativo 105 / 126 40% 2 28.06.2027 -
Manuel Lopez Valledupar Ativo 100 / 100 40% 1 18.06.2027 -
José Pachuca Puebla Ativo 121 / 111 40% 1 17.06.2027 -
Martim Cunha Porto Ativo 90 / 99 40% 2 13.06.2027 -
Louis Leroux FC Nantes Ativo 142 / 124 40% 1 09.06.2027 -
Juan Manuel Mosquera Universitario Popayan Ativo 88 / 86 40% 1 05.06.2027 -
Jenson Jones Peterborough United Ativo 97 / 101 40% 1 03.06.2027 -
Florin Bancu Utrecht Ativo 124 / 124 68% 1 01.06.2027 Aprovar
Raymond Agyemang Aduana Stars Ativo 85 / 88 40% 1 27.01.2027 -
Taras Mykhavko Dynamo Kyiv Ativo 116 / 113 40% 1 25.01.2027 Mais informações
Luca Martínez Dupuy Godoy Cruz Ativo 136 / 112 40% 1 15.01.2027 -
Jonathan Dellarossa Viborg Ativo 116 / 115 40% 1 14.01.2027 -
Ismael Díaz Leon Ativo 135 / 129 40% 2 12.01.2027 -
Tobías Cervera SonderjyskE Ativo 122 / 115 40% 1 12.01.2027 -
Ignacio Russo Tigre Ativo 141 / 126 40% 1 09.01.2027 -
Agustín Fontana Hajduk Split Ativo 119 / 106 40% 1 09.01.2027 -
Christian Ebere Cruz Azul Ativo 113 / 123 40% 1 07.01.2027 -
Samed Baždar Sint-Truiden Ativo 123 / 121 40% 1 07.01.2027 -